Time;durP1;ratioP1;P1;durP2;ratioP2;P2;SDS_P1;SDS_P2;PMS_P1;PMS_P2;Temp;Humidity;BMP_temperature;BMP_pressure;BME280_temperature;BME280_humidity;BME280_pressure;Samples;Min_cycle;Max_cycle;Signal;HPM_P1;HPM_P2
2021/05/21 00:01:34;0.00;0.00;0.62;0.00;0.00;0.62;1.53;1.43;;;27.70;24.60;;;;;;2222469;62;20360;-61
2021/05/21 00:04:01;0.00;0.00;0.62;0.00;0.00;0.62;1.80;1.50;;;27.70;24.60;;;;;;2221167;62;20602;-62
2021/05/21 00:06:28;0.00;0.00;0.62;0.00;0.00;0.62;1.67;1.23;;;27.70;24.60;;;;;;2221963;62;20368;-62
2021/05/21 00:08:56;0.00;0.00;0.62;0.00;0.00;0.62;2.00;1.80;;;27.70;24.60;;;;;;2222160;62;20383;-62
2021/05/21 00:11:23;0.00;0.00;0.62;0.00;0.00;0.62;1.93;1.57;;;27.70;24.60;;;;;;2221188;62;20396;-61
2021/05/21 00:13:50;0.00;0.00;0.62;0.00;0.00;0.62;1.73;1.40;;;27.70;24.60;;;;;;2221926;62;20570;-62
2021/05/21 00:16:17;0.00;0.00;0.62;0.00;0.00;0.62;1.70;1.53;;;27.70;24.60;;;;;;2222221;62;20367;-62
2021/05/21 00:18:46;0.00;0.00;0.62;0.00;0.00;0.62;2.33;1.50;;;27.70;24.60;;;;;;2221087;62;20384;-62
2021/05/21 00:21:13;0.00;0.00;0.62;0.00;0.00;0.62;2.20;1.77;;;27.70;24.60;;;;;;2222069;62;20361;-62
2021/05/21 00:23:39;0.00;0.00;0.62;0.00;0.00;0.62;1.63;1.30;;;27.70;24.60;;;;;;2222265;62;20360;-62
2021/05/21 00:26:07;0.00;0.00;0.62;0.00;0.00;0.62;2.93;1.40;;;27.70;24.50;;;;;;2221039;62;20370;-62
2021/05/21 00:28:33;0.00;0.00;0.62;0.00;0.00;0.62;1.83;1.50;;;27.70;24.50;;;;;;2221770;62;20412;-62
2021/05/21 00:31:00;0.00;0.00;0.62;0.00;0.00;0.62;2.03;1.83;;;27.60;24.50;;;;;;2222308;62;20735;-62
2021/05/21 00:33:27;0.00;0.00;0.62;0.00;0.00;0.62;2.03;1.83;;;27.60;24.50;;;;;;2221060;62;20375;-61
2021/05/21 00:35:53;0.00;0.00;0.62;0.00;0.00;0.62;1.60;1.50;;;27.60;24.50;;;;;;2221938;62;20709;-62
2021/05/21 00:38:20;0.00;0.00;0.62;0.00;0.00;0.62;2.33;1.70;;;27.60;24.50;;;;;;2221978;62;20395;-62
2021/05/21 00:40:46;0.00;0.00;0.62;0.00;0.00;0.62;3.20;1.60;;;27.60;24.50;;;;;;2221283;62;20364;-62
2021/05/21 00:43:16;0.00;0.00;0.62;0.00;0.00;0.62;2.00;1.70;;;27.60;24.40;;;;;;2221868;62;20435;-62
2021/05/21 00:45:43;0.00;0.00;0.62;0.00;0.00;0.62;2.33;1.70;;;27.60;24.50;;;;;;2222222;62;20375;-62
2021/05/21 00:48:10;0.00;0.00;0.62;0.00;0.00;0.62;2.27;1.47;;;27.60;24.40;;;;;;2221119;62;20610;-62
2021/05/21 00:50:37;0.00;0.00;0.62;0.00;0.00;0.62;2.07;1.80;;;27.60;24.40;;;;;;2221659;62;20617;-62
2021/05/21 00:53:05;0.00;0.00;0.62;0.00;0.00;0.62;1.70;1.47;;;27.50;24.40;;;;;;2221993;62;20451;-62
2021/05/21 00:55:32;0.00;0.00;0.62;0.00;0.00;0.62;1.87;1.67;;;27.60;24.40;;;;;;2221354;62;20401;-63
2021/05/21 00:58:01;0.00;0.00;0.62;0.00;0.00;0.62;3.63;2.10;;;27.50;24.50;;;;;;2221656;62;20391;-62
2021/05/21 01:00:29;0.00;0.00;0.62;0.00;0.00;0.62;1.60;1.30;;;27.50;24.50;;;;;;2222136;62;20369;-62
2021/05/21 01:02:55;0.00;0.00;0.62;0.00;0.00;0.62;2.07;1.50;;;27.50;24.40;;;;;;2221351;62;20368;-62
2021/05/21 01:05:22;0.00;0.00;0.62;0.00;0.00;0.62;2.80;1.50;;;27.50;24.40;;;;;;2221968;62;20571;-63
2021/05/21 01:07:49;0.00;0.00;0.62;0.00;0.00;0.62;2.63;1.53;;;27.50;24.40;;;;;;2221832;62;20387;-63
2021/05/21 01:10:16;0.00;0.00;0.62;0.00;0.00;0.62;1.87;1.53;;;27.50;24.40;;;;;;2221385;62;20371;-63
2021/05/21 01:12:43;0.00;0.00;0.62;0.00;0.00;0.62;1.87;1.50;;;27.50;24.40;;;;;;2221557;62;20496;-62
2021/05/21 01:15:12;0.00;0.00;0.62;0.00;0.00;0.62;3.13;1.70;;;27.40;24.40;;;;;;2222017;62;20580;-62
2021/05/21 01:17:39;0.00;0.00;0.62;0.00;0.00;0.62;1.80;1.50;;;27.40;24.40;;;;;;2221232;62;20401;-62
2021/05/21 01:20:10;0.00;0.00;0.62;0.00;0.00;0.62;1.70;1.40;;;27.40;24.30;;;;;;2221675;62;20369;-62
2021/05/21 01:22:38;0.00;0.00;0.62;0.00;0.00;0.62;2.10;1.30;;;27.40;24.40;;;;;;2222005;62;20761;-62
2021/05/21 01:25:07;0.00;0.00;0.62;0.00;0.00;0.62;1.53;1.43;;;27.40;24.40;;;;;;2221462;62;20439;-62
2021/05/21 01:27:33;0.00;0.00;0.62;0.00;0.00;0.62;1.60;1.50;;;27.40;24.40;;;;;;2221320;62;20369;-62
2021/05/21 01:30:00;0.00;0.00;0.62;0.00;0.00;0.62;2.70;1.30;;;27.40;24.50;;;;;;2222186;62;20601;-62
2021/05/21 01:32:27;0.00;0.00;0.62;0.00;0.00;0.62;2.53;1.30;;;27.40;24.40;;;;;;2221245;62;20403;-62
2021/05/21 01:34:54;0.00;0.00;0.62;0.00;0.00;0.62;1.93;1.50;;;27.40;24.40;;;;;;2221503;62;20364;-62
2021/05/21 01:37:22;0.00;0.00;0.62;0.00;0.00;0.62;1.67;1.50;;;27.40;24.50;;;;;;2221263;62;20365;-63
2021/05/21 01:39:51;0.00;0.00;0.62;0.00;0.00;0.62;1.67;1.20;;;27.40;24.40;;;;;;2221459;62;20368;-62
2021/05/21 01:42:19;0.00;0.00;0.62;0.00;0.00;0.62;3.33;1.80;;;27.30;24.40;;;;;;2221348;62;20689;-62
2021/05/21 01:44:46;0.00;0.00;0.62;0.00;0.00;0.62;1.70;1.50;;;27.30;24.40;;;;;;2221907;62;20352;-62
2021/05/21 01:47:13;0.00;0.00;0.62;0.00;0.00;0.62;1.63;1.20;;;27.30;24.40;;;;;;2221811;62;20372;-62
2021/05/21 01:49:41;0.00;0.00;0.62;0.00;0.00;0.62;1.97;1.30;;;27.30;24.30;;;;;;2221360;62;20604;-62
2021/05/21 01:52:08;0.00;0.00;0.62;0.00;0.00;0.62;1.30;1.03;;;27.30;24.40;;;;;;2222463;62;20406;-62
2021/05/21 01:54:35;0.00;0.00;0.62;0.00;0.00;0.62;2.07;1.43;;;27.30;24.40;;;;;;2222070;62;20579;-62
2021/05/21 01:57:04;0.00;0.00;0.62;0.00;0.00;0.62;2.50;1.20;;;27.30;24.40;;;;;;2221874;62;20369;-62
2021/05/21 01:59:31;0.00;0.00;0.62;0.00;0.00;0.62;1.40;1.20;;;27.30;24.40;;;;;;2222589;62;20418;-62
2021/05/21 02:01:59;0.00;0.00;0.62;0.00;0.00;0.62;2.87;1.60;;;27.30;24.40;;;;;;2222121;62;20364;-62
2021/05/21 02:04:30;0.00;0.00;0.62;0.00;0.00;0.62;1.67;1.47;;;27.30;24.40;;;;;;2221989;62;20361;-62
2021/05/21 02:06:58;0.00;0.00;0.62;0.00;0.00;0.62;1.80;1.33;;;27.20;24.40;;;;;;2222511;62;20444;-62
2021/05/21 02:09:25;0.00;0.00;0.62;0.00;0.00;0.62;2.10;1.27;;;27.20;24.30;;;;;;2221983;62;20387;-62
2021/05/21 02:11:52;0.00;0.00;0.62;0.00;0.00;0.62;1.73;1.20;;;27.20;24.30;;;;;;2221907;62;20486;-62
2021/05/21 02:14:19;0.00;0.00;0.62;0.00;0.00;0.62;1.43;0.97;;;27.20;24.40;;;;;;2222671;62;20579;-62
2021/05/21 02:16:46;0.00;0.00;0.62;0.00;0.00;0.62;1.40;1.10;;;27.20;24.40;;;;;;2221747;62;20375;-62
2021/05/21 02:19:13;0.00;0.00;0.62;0.00;0.00;0.62;1.40;1.10;;;27.20;24.90;;;;;;2221996;62;20427;-62
2021/05/21 02:21:42;0.00;0.00;0.62;0.00;0.00;0.62;2.43;1.40;;;27.20;24.30;;;;;;2222670;62;20364;-62
2021/05/21 02:24:09;0.00;0.00;0.62;0.00;0.00;0.62;1.60;1.27;;;27.20;24.30;;;;;;2221900;62;20360;-62
2021/05/21 02:26:36;0.00;0.00;0.62;0.00;0.00;0.62;1.90;1.30;;;27.20;24.30;;;;;;2221964;62;20368;-61
2021/05/21 02:29:03;0.00;0.00;0.62;0.00;0.00;0.62;1.20;0.90;;;27.20;24.30;;;;;;2222507;62;20593;-62
2021/05/21 02:31:31;0.00;0.00;0.62;0.00;0.00;0.62;1.80;1.10;;;27.20;24.30;;;;;;2221884;62;20605;-61
2021/05/21 02:33:57;0.00;0.00;0.62;0.00;0.00;0.62;1.63;1.13;;;27.20;24.30;;;;;;2221874;62;20368;-62
2021/05/21 02:36:24;0.00;0.00;0.62;0.00;0.00;0.62;2.17;1.13;;;27.10;24.20;;;;;;2222496;62;20717;-62
2021/05/21 02:38:50;0.00;0.00;0.62;0.00;0.00;0.62;2.37;1.20;;;27.10;24.20;;;;;;2221605;62;20396;-62
2021/05/21 02:41:17;0.00;0.00;0.62;0.00;0.00;0.62;1.90;1.50;;;27.10;24.80;;;;;;2221855;62;20464;-62
2021/05/21 02:43:44;0.00;0.00;0.62;0.00;0.00;0.62;3.20;1.27;;;27.10;24.20;;;;;;2222228;62;20360;-62
2021/05/21 02:46:10;0.00;0.00;0.62;0.00;0.00;0.62;1.70;1.07;;;27.10;24.20;;;;;;2221748;62;20592;-62
2021/05/21 02:48:38;0.00;0.00;0.62;0.00;0.00;0.62;1.30;1.03;;;27.10;24.20;;;;;;2221634;62;20384;-62
2021/05/21 02:51:05;0.00;0.00;0.62;0.00;0.00;0.62;1.50;1.17;;;27.10;24.30;;;;;;2222545;62;20395;-61
2021/05/21 02:53:32;0.00;0.00;0.62;0.00;0.00;0.62;1.47;0.90;;;27.10;24.20;;;;;;2221611;62;20417;-62
2021/05/21 02:55:58;0.00;0.00;0.62;0.00;0.00;0.62;1.40;1.00;;;27.10;24.20;;;;;;2221874;62;20451;-61
2021/05/21 02:58:25;0.00;0.00;0.62;0.00;0.00;0.62;3.17;1.27;;;27.10;24.20;;;;;;2222253;62;20443;-61
2021/05/21 03:00:51;0.00;0.00;0.62;0.00;0.00;0.62;1.50;0.97;;;27.00;24.20;;;;;;2221782;62;20368;-61
2021/05/21 03:03:18;0.00;0.00;0.62;0.00;0.00;0.62;1.60;1.10;;;27.00;24.20;;;;;;2221860;62;20440;-61
2021/05/21 03:05:46;0.00;0.00;0.62;0.00;0.00;0.62;1.40;1.00;;;27.00;24.20;;;;;;2222448;62;20417;-61
2021/05/21 03:08:12;0.00;0.00;0.62;0.00;0.00;0.62;1.40;1.10;;;27.00;24.10;;;;;;2221523;62;20646;-61
2021/05/21 03:10:39;0.00;0.00;0.62;0.00;0.00;0.62;1.50;1.10;;;27.00;24.10;;;;;;2221721;62;20448;-61
2021/05/21 03:13:06;0.00;0.00;0.62;0.00;0.00;0.62;4.13;1.30;;;27.00;24.10;;;;;;2222333;62;20359;-61
2021/05/21 03:15:32;0.00;0.00;0.62;0.00;0.00;0.62;2.03;1.07;;;27.00;24.20;;;;;;2221804;62;20377;-61
2021/05/21 03:18:00;0.00;0.00;0.62;0.00;0.00;0.62;1.40;1.00;;;27.00;24.20;;;;;;2221642;62;20389;-61
2021/05/21 03:20:27;0.00;0.00;0.62;0.00;0.00;0.62;1.20;0.90;;;27.00;24.20;;;;;;2222379;62;20437;-61
2021/05/21 03:22:54;0.00;0.00;0.62;0.00;0.00;0.62;1.40;1.00;;;27.00;24.20;;;;;;2221939;62;20405;-61
2021/05/21 03:25:21;0.00;0.00;0.62;0.00;0.00;0.62;3.90;1.37;;;27.00;24.20;;;;;;2221706;62;20365;-62
2021/05/21 03:27:48;0.00;0.00;0.62;0.00;0.00;0.62;1.80;1.10;;;26.90;24.10;;;;;;2221648;62;20381;-61
2021/05/21 03:30:16;0.00;0.00;0.62;0.00;0.00;0.62;1.43;1.00;;;26.90;24.20;;;;;;2222148;62;20372;-61
2021/05/21 03:32:42;0.00;0.00;0.62;0.00;0.00;0.62;1.60;1.23;;;26.90;24.10;;;;;;2221020;62;20393;-61
2021/05/21 03:35:11;0.00;0.00;0.62;0.00;0.00;0.62;1.33;1.07;;;26.90;24.20;;;;;;2222456;62;20440;-61
2021/05/21 03:37:37;0.00;0.00;0.62;0.00;0.00;0.62;1.90;1.10;;;26.90;24.20;;;;;;2221858;62;20372;-61
2021/05/21 03:40:06;0.00;0.00;0.62;0.00;0.00;0.62;1.67;1.30;;;26.90;24.20;;;;;;2221448;62;20417;-61
2021/05/21 03:42:33;0.00;0.00;0.62;0.00;0.00;0.62;1.40;0.83;;;26.90;24.20;;;;;;2222279;62;20447;-61
2021/05/21 03:45:00;0.00;0.00;0.62;0.00;0.00;0.62;1.50;1.20;;;26.90;24.30;;;;;;2222170;62;20705;-61
2021/05/21 03:47:27;0.00;0.00;0.62;0.00;0.00;0.62;1.67;1.10;;;26.90;24.20;;;;;;2221144;62;20464;-61
2021/05/21 03:49:53;0.00;0.00;0.62;0.00;0.00;0.62;2.00;1.17;;;26.90;24.20;;;;;;2222283;62;20485;-61
2021/05/21 03:52:20;0.00;0.00;0.62;0.00;0.00;0.62;2.10;1.10;;;26.90;24.20;;;;;;2221950;62;20439;-61
2021/05/21 03:54:47;0.00;0.00;0.62;0.00;0.00;0.62;1.67;1.10;;;26.80;24.20;;;;;;2221246;62;20396;-61
2021/05/21 03:57:15;0.00;0.00;0.62;0.00;0.00;0.62;2.10;1.10;;;26.80;24.10;;;;;;2222090;62;20379;-60
2021/05/21 03:59:41;0.00;0.00;0.62;0.00;0.00;0.62;1.40;1.00;;;26.90;24.20;;;;;;2222134;62;20388;-61
2021/05/21 04:02:10;0.00;0.00;0.62;0.00;0.00;0.62;4.03;1.10;;;26.80;24.10;;;;;;2221116;62;20781;-60
2021/05/21 04:04:37;0.00;0.00;0.62;0.00;0.00;0.62;1.63;1.00;;;26.80;24.20;;;;;;2222292;62;20363;-61
2021/05/21 04:07:04;0.00;0.00;0.62;0.00;0.00;0.62;3.20;1.00;;;26.80;24.10;;;;;;2221928;62;20365;-61
2021/05/21 04:09:31;0.00;0.00;0.62;0.00;0.00;0.62;2.13;0.90;;;26.80;24.20;;;;;;2221112;62;20391;-61
2021/05/21 04:11:57;0.00;0.00;0.62;0.00;0.00;0.62;2.33;1.00;;;26.80;24.20;;;;;;2222316;62;20423;-61
2021/05/21 04:14:25;0.00;0.00;0.62;0.00;0.00;0.62;2.23;1.40;;;26.80;24.20;;;;;;2222102;62;20368;-62
2021/05/21 04:16:52;0.00;0.00;0.62;0.00;0.00;0.62;2.43;1.13;;;26.80;24.20;;;;;;2221092;62;20380;-62
2021/05/21 04:19:19;0.00;0.00;0.62;0.00;0.00;0.62;2.80;1.40;;;26.80;24.20;;;;;;2222396;62;20423;-62
2021/05/21 04:21:46;0.00;0.00;0.62;0.00;0.00;0.62;1.60;1.10;;;26.80;24.20;;;;;;2222242;62;20439;-61
2021/05/21 04:24:13;0.00;0.00;0.62;0.00;0.00;0.62;3.70;1.50;;;26.80;24.20;;;;;;2221360;62;20361;-60
2021/05/21 04:26:39;0.00;0.00;0.62;0.00;0.00;0.62;1.60;1.10;;;26.80;24.20;;;;;;2222256;62;20374;-60
2021/05/21 04:29:06;0.00;0.00;0.62;0.00;0.00;0.62;1.30;1.07;;;26.80;24.20;;;;;;2221943;62;20379;-61
2021/05/21 04:31:34;0.00;0.00;0.62;0.00;0.00;0.62;1.43;1.30;;;26.80;24.20;;;;;;2221224;62;20388;-65
2021/05/21 04:34:00;0.00;0.00;0.62;0.00;0.00;0.62;2.13;1.20;;;26.80;24.20;;;;;;2222182;62;20360;-63
2021/05/21 04:36:27;0.00;0.00;0.62;0.00;0.00;0.62;2.30;1.27;;;26.80;24.20;;;;;;2221829;62;20369;-63
2021/05/21 04:38:54;0.00;0.00;0.62;0.00;0.00;0.62;2.30;1.20;;;26.80;24.20;;;;;;2221011;62;20391;-63
2021/05/21 04:41:20;0.00;0.00;0.62;0.00;0.00;0.62;3.00;1.50;;;26.70;24.10;;;;;;2222217;62;20364;-65
2021/05/21 04:43:47;0.00;0.00;0.62;0.00;0.00;0.62;2.03;1.33;;;26.70;24.10;;;;;;2221881;62;20361;-62
2021/05/21 04:46:15;0.00;0.00;0.62;0.00;0.00;0.62;2.37;1.60;;;26.70;24.10;;;;;;2221159;62;20373;-62
2021/05/21 04:48:42;0.00;0.00;0.62;0.00;0.00;0.62;1.40;1.20;;;26.70;24.10;;;;;;2222103;62;20639;-61
2021/05/21 04:51:09;0.00;0.00;0.62;0.00;0.00;0.62;2.80;1.57;;;26.70;24.20;;;;;;2221911;62;20380;-60
2021/05/21 04:53:37;0.00;0.00;0.62;0.00;0.00;0.62;2.83;1.70;;;26.70;24.20;;;;;;2221049;62;20456;-60
2021/05/21 04:56:04;0.00;0.00;0.62;0.00;0.00;0.62;2.60;1.37;;;26.70;24.20;;;;;;2222021;62;20367;-62
2021/05/21 04:58:31;0.00;0.00;0.62;0.00;0.00;0.62;2.83;1.40;;;26.70;24.30;;;;;;2221767;62;20391;-62
2021/05/21 05:00:58;0.00;0.00;0.62;0.00;0.00;0.62;3.63;1.50;;;26.70;24.30;;;;;;2221188;62;20579;-64
2021/05/21 05:03:24;0.00;0.00;0.62;0.00;0.00;0.62;1.70;1.40;;;26.70;24.30;;;;;;2221967;62;20372;-63
2021/05/21 05:05:52;0.00;0.00;0.62;0.00;0.00;0.62;7.83;1.40;;;26.70;24.30;;;;;;2221969;62;20447;-63
2021/05/21 05:08:19;0.00;0.00;0.62;0.00;0.00;0.62;2.67;1.33;;;26.70;24.30;;;;;;2220866;62;20383;-62
2021/05/21 05:10:48;0.00;0.00;0.62;0.00;0.00;0.62;2.33;1.53;;;26.70;24.30;;;;;;2222004;62;20700;-64
2021/05/21 05:13:15;0.00;0.00;0.62;0.00;0.00;0.62;2.07;1.70;;;26.70;24.30;;;;;;2221741;62;20375;-63
2021/05/21 05:15:43;0.00;0.00;0.62;0.00;0.00;0.62;3.03;1.80;;;26.70;24.30;;;;;;2221028;62;20364;-62
2021/05/21 05:18:10;0.00;0.00;0.62;0.00;0.00;0.62;2.50;1.63;;;26.70;24.20;;;;;;2221822;62;20388;-64
2021/05/21 05:20:37;0.00;0.00;0.62;0.00;0.00;0.62;2.37;1.80;;;26.70;24.20;;;;;;2222183;62;20355;-64
2021/05/21 05:23:07;0.00;0.00;0.62;0.00;0.00;0.62;5.90;1.40;;;26.70;24.30;;;;;;2221768;62;20712;-65
2021/05/21 05:25:34;0.00;0.00;0.62;0.00;0.00;0.62;2.30;1.50;;;26.70;24.30;;;;;;2222841;62;20441;-64
2021/05/21 05:28:01;0.00;0.00;0.62;0.00;0.00;0.62;2.33;1.93;;;26.70;24.30;;;;;;2222390;62;20394;-63
2021/05/21 05:30:27;0.00;0.00;0.62;0.00;0.00;0.62;3.43;1.93;;;26.70;24.30;;;;;;2221658;62;20595;-64
2021/05/21 05:32:54;0.00;0.00;0.62;0.00;0.00;0.62;2.73;1.70;;;26.70;24.30;;;;;;2222557;62;20699;-64
2021/05/21 05:35:21;0.00;0.00;0.62;0.00;0.00;0.62;4.13;1.90;;;26.70;24.30;;;;;;2222547;62;20430;-64
2021/05/21 05:37:47;0.00;0.00;0.62;0.00;0.00;0.62;2.20;1.60;;;26.70;24.30;;;;;;2221459;62;20478;-62
2021/05/21 05:40:15;0.00;0.00;0.62;0.00;0.00;0.62;2.67;1.47;;;26.70;24.30;;;;;;2222546;62;20357;-64
2021/05/21 05:42:42;0.00;0.00;0.62;0.00;0.00;0.62;3.40;1.90;;;26.70;24.20;;;;;;2222616;62;20635;-62
2021/05/21 05:45:10;0.00;0.00;0.62;0.00;0.00;0.62;2.10;1.73;;;26.70;24.30;;;;;;2221677;62;20363;-63
2021/05/21 05:47:37;0.00;0.00;0.62;0.00;0.00;0.62;3.40;1.70;;;26.70;24.30;;;;;;2221995;62;20371;-64
2021/05/21 05:50:04;0.00;0.00;0.62;0.00;0.00;0.62;3.10;1.60;;;26.70;24.30;;;;;;2222587;62;20360;-64
2021/05/21 05:52:31;0.00;0.00;0.62;0.00;0.00;0.62;3.13;2.03;;;26.70;24.20;;;;;;2220947;62;20398;-63
2021/05/21 05:54:58;0.00;0.00;0.62;0.00;0.00;0.62;3.63;1.37;;;26.70;24.20;;;;;;2222405;62;20366;-62
2021/05/21 05:57:25;0.00;0.00;0.62;0.00;0.00;0.62;2.30;1.53;;;26.70;24.20;;;;;;2222395;62;20368;-62
2021/05/21 05:59:52;0.00;0.00;0.62;0.00;0.00;0.62;2.30;1.50;;;26.70;24.20;;;;;;2221499;62;20368;-63
2021/05/21 06:02:18;0.00;0.00;0.62;0.00;0.00;0.62;2.03;1.30;;;26.70;24.20;;;;;;2222736;62;20352;-63
2021/05/21 06:04:45;0.00;0.00;0.62;0.00;0.00;0.62;1.60;1.23;;;26.70;24.20;;;;;;2222666;62;20600;-63
2021/05/21 06:07:11;0.00;0.00;0.62;0.00;0.00;0.62;1.93;1.40;;;26.70;24.20;;;;;;2221348;62;20372;-64
2021/05/21 06:09:38;0.00;0.00;0.62;0.00;0.00;0.62;2.10;1.20;;;26.70;24.20;;;;;;2222649;62;20518;-64
2021/05/21 06:12:06;0.00;0.00;0.62;0.00;0.00;0.62;1.73;1.57;;;26.70;24.20;;;;;;2222567;62;20505;-62
2021/05/21 06:14:34;0.00;0.00;0.62;0.00;0.00;0.62;3.17;2.13;;;26.70;24.20;;;;;;2221577;62;20412;-63
2021/05/21 06:17:00;0.00;0.00;0.62;0.00;0.00;0.62;2.03;1.17;;;26.70;24.20;;;;;;2222541;62;20368;-63
2021/05/21 06:19:27;0.00;0.00;0.62;0.00;0.00;0.62;2.47;1.57;;;26.70;24.20;;;;;;2222206;62;20391;-63
2021/05/21 06:21:54;0.00;0.00;0.62;0.00;0.00;0.62;2.17;1.50;;;26.70;24.20;;;;;;2221617;62;20372;-63
2021/05/21 06:24:20;0.00;0.00;0.62;0.00;0.00;0.62;1.90;1.50;;;26.60;24.10;;;;;;2222699;62;20356;-62
2021/05/21 06:29:35;0.00;0.00;0.62;0.00;0.00;0.62;2.00;1.40;;;26.70;24.20;;;;;;2221438;62;20383;-62
2021/05/21 06:32:02;0.00;0.00;0.62;0.00;0.00;0.62;2.30;1.63;;;26.70;24.20;;;;;;2222569;62;20440;-64
2021/05/21 06:34:29;0.00;0.00;0.62;0.00;0.00;0.62;1.80;1.60;;;26.60;24.10;;;;;;2222546;62;20357;-64
2021/05/21 06:36:55;0.00;0.00;0.62;0.00;0.00;0.62;4.40;1.57;;;26.60;24.10;;;;;;2221218;62;20708;-62
2021/05/21 06:39:22;0.00;0.00;0.62;0.00;0.00;0.62;3.20;1.50;;;26.60;24.10;;;;;;2222624;62;20399;-63
2021/05/21 06:41:48;0.00;0.00;0.62;0.00;0.00;0.62;1.73;1.47;;;26.60;24.10;;;;;;2222617;62;20360;-62
2021/05/21 06:44:15;0.00;0.00;0.62;0.00;0.00;0.62;2.77;1.70;;;26.60;24.10;;;;;;2221511;62;20384;-62
2021/05/21 06:46:43;0.00;0.00;0.62;0.00;0.00;0.62;2.00;1.47;;;26.60;24.10;;;;;;2222679;62;20666;-62
2021/05/21 06:49:14;0.00;0.00;0.62;0.00;0.00;0.62;1.63;1.47;;;26.60;24.10;;;;;;2222539;62;20389;-64
2021/05/21 06:51:41;0.00;0.00;0.62;0.00;0.00;0.62;1.60;1.30;;;26.60;24.60;;;;;;2221471;62;20625;-64
2021/05/21 06:54:09;0.00;0.00;0.62;0.00;0.00;0.62;1.70;1.40;;;26.60;24.10;;;;;;2222428;62;20361;-64
2021/05/21 06:56:36;0.00;0.00;0.62;0.00;0.00;0.62;2.50;1.80;;;26.60;24.10;;;;;;2222546;62;20372;-63
2021/05/21 06:59:04;0.00;0.00;0.62;0.00;0.00;0.62;2.60;2.03;;;26.60;24.10;;;;;;2221467;62;20388;-64
2021/05/21 07:01:31;0.00;0.00;0.62;0.00;0.00;0.62;2.30;1.50;;;26.60;24.10;;;;;;2222497;62;20448;-65
2021/05/21 07:03:59;0.00;0.00;0.62;0.00;0.00;0.62;2.30;1.80;;;26.60;24.00;;;;;;2222472;62;20365;-64
2021/05/21 07:06:25;0.00;0.00;0.62;0.00;0.00;0.62;2.87;1.97;;;26.60;24.10;;;;;;2221339;62;20710;-63
2021/05/21 07:08:52;0.00;0.00;0.62;0.00;0.00;0.62;2.20;1.40;;;26.60;24.10;;;;;;2222452;62;20773;-63
2021/05/21 07:11:19;0.00;0.00;0.62;0.00;0.00;0.62;2.17;1.87;;;26.60;24.10;;;;;;2222506;62;20392;-64
2021/05/21 07:13:45;0.00;0.00;0.62;0.00;0.00;0.62;2.10;1.60;;;26.60;24.00;;;;;;2221294;62;20368;-63
2021/05/21 07:16:12;0.00;0.00;0.62;0.00;0.00;0.62;1.80;1.17;;;26.60;24.10;;;;;;2222348;62;20361;-61
2021/05/21 07:18:39;0.00;0.00;0.62;0.00;0.00;0.62;2.93;1.50;;;26.70;24.10;;;;;;2221922;62;20459;-63
2021/05/21 07:21:06;0.00;0.00;0.62;0.00;0.00;0.62;2.07;1.30;;;26.70;24.00;;;;;;2221558;62;20448;-63
2021/05/21 07:23:33;0.00;0.00;0.62;0.00;0.00;0.62;2.50;1.53;;;26.70;24.00;;;;;;2222501;62;20614;-64
2021/05/21 07:25:59;0.00;0.00;0.62;0.00;0.00;0.62;2.07;1.30;;;26.70;24.00;;;;;;2222369;62;20365;-63
2021/05/21 07:28:26;0.00;0.00;0.62;0.00;0.00;0.62;1.80;1.13;;;26.70;24.00;;;;;;2221339;62;20384;-64
2021/05/21 07:30:53;0.00;0.00;0.62;0.00;0.00;0.62;2.00;1.40;;;26.70;24.00;;;;;;2222431;62;20714;-64
2021/05/21 07:33:20;0.00;0.00;0.62;0.00;0.00;0.62;1.90;1.40;;;26.70;24.00;;;;;;2222377;62;20365;-63
2021/05/21 07:35:46;0.00;0.00;0.62;0.00;0.00;0.62;1.90;1.40;;;26.70;24.00;;;;;;2221665;62;20408;-64
2021/05/21 07:38:15;0.00;0.00;0.62;0.00;0.00;0.62;1.77;1.20;;;26.70;24.00;;;;;;2222023;62;20759;-63
2021/05/21 07:40:42;0.00;0.00;0.62;0.00;0.00;0.62;1.93;1.40;;;26.70;23.90;;;;;;2222404;62;20588;-63
2021/05/21 07:43:09;0.00;0.00;0.62;0.00;0.00;0.62;2.47;1.20;;;26.70;23.90;;;;;;2221536;62;20435;-63
2021/05/21 07:45:35;0.00;0.00;0.62;0.00;0.00;0.62;2.40;1.40;;;26.70;23.90;;;;;;2222119;62;20457;-63
2021/05/21 07:48:03;0.00;0.00;0.62;0.00;0.00;0.62;1.80;1.13;;;26.70;23.90;;;;;;2222226;62;20396;-63
2021/05/21 07:50:29;0.00;0.00;0.62;0.00;0.00;0.62;1.67;1.50;;;26.70;23.90;;;;;;2221604;62;20365;-64
2021/05/21 07:52:56;0.00;0.00;0.62;0.00;0.00;0.62;1.80;1.33;;;26.70;23.90;;;;;;2221981;62;20396;-63
2021/05/21 07:55:23;0.00;0.00;0.62;0.00;0.00;0.62;2.10;1.20;;;26.80;23.90;;;;;;2222655;62;20459;-62
2021/05/21 07:57:50;0.00;0.00;0.62;0.00;0.00;0.62;1.50;1.20;;;26.80;23.90;;;;;;2220994;62;20389;-64
2021/05/21 08:00:19;0.00;0.00;0.62;0.00;0.00;0.62;2.67;1.33;;;26.80;23.90;;;;;;2222122;62;20446;-62
2021/05/21 08:02:45;0.00;0.00;0.62;0.00;0.00;0.62;3.10;1.40;;;26.80;23.90;;;;;;2222535;62;20364;-62
2021/05/21 08:05:12;0.00;0.00;0.62;0.00;0.00;0.62;1.30;1.17;;;26.80;23.90;;;;;;2221736;62;20361;-62
2021/05/21 08:07:39;0.00;0.00;0.62;0.00;0.00;0.62;1.50;1.20;;;26.80;23.90;;;;;;2222008;62;20375;-63
2021/05/21 08:10:08;0.00;0.00;0.62;0.00;0.00;0.62;1.70;1.27;;;26.80;23.90;;;;;;2222575;62;20489;-62
2021/05/21 08:12:36;0.00;0.00;0.62;0.00;0.00;0.62;2.17;1.03;;;26.80;23.90;;;;;;2221451;62;20400;-63
2021/05/21 08:15:04;0.00;0.00;0.62;0.00;0.00;0.62;2.87;1.40;;;26.80;23.80;;;;;;2222115;62;20439;-63
2021/05/21 08:17:33;0.00;0.00;0.62;0.00;0.00;0.62;2.47;1.50;;;26.80;23.80;;;;;;2222197;62;20582;-64
2021/05/21 08:20:01;0.00;0.00;0.62;0.00;0.00;0.62;2.37;1.10;;;26.80;23.80;;;;;;2221711;62;20615;-64
2021/05/21 08:22:29;0.00;0.00;0.62;0.00;0.00;0.62;2.57;1.00;;;26.80;23.80;;;;;;2222057;62;20353;-62
2021/05/21 08:24:56;0.00;0.00;0.62;0.00;0.00;0.62;3.53;1.53;;;26.80;23.80;;;;;;2225024;62;20700;-63
2021/05/21 08:27:22;0.00;0.00;0.62;0.00;0.00;0.62;8.63;2.60;;;26.80;23.80;;;;;;2221331;62;20408;-63
2021/05/21 08:29:50;0.00;0.00;0.62;0.00;0.00;0.62;1.70;1.30;;;26.80;23.80;;;;;;2222003;62;20632;-62
2021/05/21 08:32:17;0.00;0.00;0.62;0.00;0.00;0.62;2.30;1.40;;;26.80;23.80;;;;;;2222273;62;20399;-63
2021/05/21 08:34:43;0.00;0.00;0.62;0.00;0.00;0.62;1.60;1.30;;;26.80;23.80;;;;;;2221380;62;20719;-63
2021/05/21 08:37:10;0.00;0.00;0.62;0.00;0.00;0.62;2.37;1.37;;;26.80;23.70;;;;;;2221799;62;20379;-63
2021/05/21 08:39:38;0.00;0.00;0.62;0.00;0.00;0.62;1.87;1.10;;;26.80;23.70;;;;;;2222273;62;20431;-64
2021/05/21 08:42:07;0.00;0.00;0.62;0.00;0.00;0.62;1.70;1.10;;;26.80;23.70;;;;;;2221416;62;20364;-64
2021/05/21 08:44:35;0.00;0.00;0.62;0.00;0.00;0.62;1.60;1.10;;;26.80;23.80;;;;;;2221992;62;20361;-63
2021/05/21 08:47:03;0.00;0.00;0.62;0.00;0.00;0.62;2.63;1.70;;;26.90;23.80;;;;;;2222170;62;20627;-63
2021/05/21 08:49:29;0.00;0.00;0.62;0.00;0.00;0.62;2.57;1.60;;;26.80;23.70;;;;;;2221317;62;20413;-64
2021/05/21 08:51:57;0.00;0.00;0.62;0.00;0.00;0.62;4.10;1.30;;;26.80;23.70;;;;;;2221896;62;20388;-62
2021/05/21 08:54:24;0.00;0.00;0.62;0.00;0.00;0.62;2.03;1.43;;;26.80;23.70;;;;;;2222356;62;20356;-63
2021/05/21 08:56:51;0.00;0.00;0.62;0.00;0.00;0.62;2.30;1.30;;;26.80;23.70;;;;;;2221964;62;20404;-62
2021/05/21 08:59:17;0.00;0.00;0.62;0.00;0.00;0.62;2.30;1.10;;;26.80;23.70;;;;;;2222719;62;20375;-64
2021/05/21 09:01:53;0.00;0.00;0.62;0.00;0.00;0.62;2.07;1.10;;;26.80;23.70;;;;;;2222891;62;20386;-64
2021/05/21 09:04:20;0.00;0.00;0.62;0.00;0.00;0.62;2.00;1.10;;;26.80;23.70;;;;;;2222025;62;20364;-63
2021/05/21 09:06:47;0.00;0.00;0.62;0.00;0.00;0.62;1.83;1.00;;;26.80;23.70;;;;;;2222540;62;20373;-62
2021/05/21 09:09:14;0.00;0.00;0.62;0.00;0.00;0.62;2.03;1.70;;;26.90;23.70;;;;;;2222834;62;20458;-63
2021/05/21 09:11:46;0.00;0.00;0.62;0.00;0.00;0.62;2.67;1.37;;;26.90;23.70;;;;;;2222057;62;20392;-63
2021/05/21 09:14:14;0.00;0.00;0.62;0.00;0.00;0.62;2.57;1.20;;;26.90;23.70;;;;;;2222697;62;20363;-63
2021/05/21 09:16:43;0.00;0.00;0.62;0.00;0.00;0.62;1.80;1.03;;;26.90;23.70;;;;;;2222634;62;20393;-64
2021/05/21 09:19:16;0.00;0.00;0.62;0.00;0.00;0.62;1.23;0.90;;;26.90;23.70;;;;;;2222075;62;20750;-64
2021/05/21 09:21:53;0.00;0.00;0.62;0.00;0.00;0.62;1.70;1.13;;;26.90;23.70;;;;;;2222310;62;20627;-63
2021/05/21 09:24:23;0.00;0.00;0.62;0.00;0.00;0.62;1.73;1.17;;;26.90;23.70;;;;;;2222774;62;20368;-62
2021/05/21 09:26:52;0.00;0.00;0.62;0.00;0.00;0.62;1.90;1.20;;;26.90;23.70;;;;;;2221882;62;20393;-62
2021/05/21 09:29:35;0.00;0.00;0.62;0.00;0.00;0.62;2.50;1.00;;;26.90;23.70;;;;;;2222547;62;20766;-64
2021/05/21 09:32:16;0.00;0.00;0.62;0.00;0.00;0.62;2.20;1.20;;;26.90;23.70;;;;;;2222714;62;20430;-63
2021/05/21 09:34:48;0.00;0.00;0.62;0.00;0.00;0.62;2.07;1.10;;;26.90;23.70;;;;;;2221756;62;20363;-61
2021/05/21 09:37:24;0.00;0.00;0.62;0.00;0.00;0.62;1.73;1.27;;;27.00;23.80;;;;;;2222630;62;20352;-64
2021/05/21 09:40:11;0.00;0.00;0.62;0.00;0.00;0.62;1.80;1.13;;;27.00;23.70;;;;;;2222751;62;20580;-63
2021/05/21 09:42:56;0.00;0.00;0.62;0.00;0.00;0.62;2.17;1.30;;;27.00;23.70;;;;;;2221899;62;20371;-62
2021/05/21 09:45:29;0.00;0.00;0.62;0.00;0.00;0.62;2.10;1.17;;;27.00;23.70;;;;;;2222748;62;20705;-63